Port Moody, British Columbia

2:40 PM PDT on September 01, 2015 (GMT -0700)
MILLER PARK - CLARKE HILLTOP | | Change Station
CLOSE
Current Station
Personal Weather Station
Location: PORT MOODY, BRITISH COLUMBIA
Elevation: -107507 ft
Nearby Weather Stations

Elev -107507 ft 49.27 °N, 122.88 °W | Updated 2 days ago

Cloudy
Cloudy
64 °F
Feels Like 64 °F
N
5
Wind Variable Wind from SSE
Gusts mph

Today
High -- | Low -- °F
--% Chance of Precip.
Yesterday
High -- | Low -- °F
Precip. -- in
6:27 AM 7:54 PM
Waning Gibbous, 86% visible
Pressure 29.82 in
Visibility 10.0 miles
Clouds Scattered Clouds 1800 ft
Scattered Clouds 2500 ft
Overcast 3600 ft
Dew Point 50 °F
Humidity 61%
Rainfall in
Snow Depth Not available.
UV 2 out of 12
Pollen Not available.
Air Quality Not available.
Flu Activity Not available.
SPECI CYXX 012127Z 15007KT 10SM -RA SCT018 SCT025 OVC036 14/13 A2981 RMK SC3SF1SC4 VIS 3 NE-S BR SLP096 DENSITY ALT 200FT
Pressure 29.82 in
Visibility 10.0 miles
Clouds Scattered Clouds 1800 ft
Scattered Clouds 2500 ft
Overcast 3600 ft
Dew Point 50 °F
Humidity 61%
Rainfall in
Snow Depth Not available.
UV 2 out of 12
Pollen Not available.
Air Quality Not available.
Flu Activity Not available.
SPECI CYXX 012127Z 15007KT 10SM -RA SCT018 SCT025 OVC036 14/13 A2981 RMK SC3SF1SC4 VIS 3 NE-S BR SLP096 DENSITY ALT 200FT

10-Day Weather Forecast

×

Almanac

Astronomy

Sep. 01, 2015 Rise Set
Actual Time
Civil Twilight
Nautical Twilight
Astronomical Twilight
Moon
Length of Visible Light
Length of Day
Tomorrow will be .
, % of the Moon is Illuminated

Today's Extremes

Country Highs Country Lows

Community

WunderPhotos

Upload Photos

1,851,628 photos uploaded!

WunderBlogs® & News

Nearby

Air Quality

  Air Quality AQ Index Pollutant
Not available.

Snow Depth

Station Depth Elevation

Earthquake Activity

City Distance Mag. Time & Date
Minimum magnitude displayed is 2.5.

Coastal Water Temperatures

Place Temperature

Stations

Nearby Weather Stations

Station Location Temp. Windchill Dew Point Humidity Wind Precip. Elev Updated Type